sensor_id;sensor_type;location;lat;lon;timestamp;pressure;altitude;pressure_sealevel;temperature;humidity
48644;BME280;34928;37.302;-121.984;2023-05-08T00:02:39;101182.0;;;27.20;24.31
48644;BME280;34928;37.302;-121.984;2023-05-08T00:12:44;101170.0;;;27.57;24.57
48644;BME280;34928;37.302;-121.984;2023-05-08T00:22:49;101167.0;;;27.19;25.20
48644;BME280;34928;37.302;-121.984;2023-05-08T00:32:53;101166.0;;;27.57;24.48
48644;BME280;34928;37.302;-121.984;2023-05-08T00:42:57;101164.0;;;27.20;24.60
48644;BME280;34928;37.302;-121.984;2023-05-08T00:53:03;101161.0;;;27.25;24.33
48644;BME280;34928;37.302;-121.984;2023-05-08T01:03:09;101158.0;;;27.45;24.06
48644;BME280;34928;37.302;-121.984;2023-05-08T01:13:23;101149.0;;;27.46;24.33
48644;BME280;34928;37.302;-121.984;2023-05-08T01:23:59;101154.0;;;27.69;25.59
48644;BME280;34928;37.302;-121.984;2023-05-08T01:34:13;101150.0;;;27.91;25.69
48644;BME280;34928;37.302;-121.984;2023-05-08T01:44:27;101149.0;;;27.69;26.05
48644;BME280;34928;37.302;-121.984;2023-05-08T01:54:38;101157.0;;;28.13;26.06
48644;BME280;34928;37.302;-121.984;2023-05-08T02:04:49;101158.0;;;27.91;26.35
48644;BME280;34928;37.302;-121.984;2023-05-08T02:14:59;101160.0;;;28.28;26.31
48644;BME280;34928;37.302;-121.984;2023-05-08T02:25:10;101157.0;;;28.22;26.33
48644;BME280;34928;37.302;-121.984;2023-05-08T02:35:19;101155.0;;;28.10;26.16
48644;BME280;34928;37.302;-121.984;2023-05-08T02:45:27;101158.0;;;28.12;25.96
48644;BME280;34928;37.302;-121.984;2023-05-08T02:55:43;101155.0;;;28.48;26.64
48644;BME280;34928;37.302;-121.984;2023-05-08T03:05:55;101155.0;;;28.58;26.52
48644;BME280;34928;37.302;-121.984;2023-05-08T03:16:05;101162.0;;;28.21;26.79
48644;BME280;34928;37.302;-121.984;2023-05-08T03:26:17;101173.0;;;28.25;26.63
48644;BME280;34928;37.302;-121.984;2023-05-08T03:36:25;101188.0;;;28.15;26.56
48644;BME280;34928;37.302;-121.984;2023-05-08T03:46:33;101196.0;;;28.44;26.31
48644;BME280;34928;37.302;-121.984;2023-05-08T03:56:38;101203.0;;;28.58;26.34
48644;BME280;34928;37.302;-121.984;2023-05-08T04:06:48;101215.0;;;28.07;26.52
48644;BME280;34928;37.302;-121.984;2023-05-08T04:16:59;101232.0;;;27.50;27.03
48644;BME280;34928;37.302;-121.984;2023-05-08T04:27:03;101233.0;;;27.14;26.87
48644;BME280;34928;37.302;-121.984;2023-05-08T04:37:08;101242.0;;;27.98;26.63
48644;BME280;34928;37.302;-121.984;2023-05-08T04:47:13;101243.0;;;27.64;26.62
48644;BME280;34928;37.302;-121.984;2023-05-08T04:57:18;101253.0;;;27.43;26.96
48644;BME280;34928;37.302;-121.984;2023-05-08T05:07:23;101249.0;;;27.95;26.19
48644;BME280;34928;37.302;-121.984;2023-05-08T05:17:29;101243.0;;;27.87;26.02
48644;BME280;34928;37.302;-121.984;2023-05-08T05:27:35;101241.0;;;27.75;25.67
48644;BME280;34928;37.302;-121.984;2023-05-08T05:37:38;101231.0;;;27.83;26.02
48644;BME280;34928;37.302;-121.984;2023-05-08T05:47:45;101223.0;;;27.62;25.88
48644;BME280;34928;37.302;-121.984;2023-05-08T05:57:53;101213.0;;;27.42;25.85
48644;BME280;34928;37.302;-121.984;2023-05-08T06:07:58;101215.0;;;27.29;26.00
48644;BME280;34928;37.302;-121.984;2023-05-08T06:18:02;101221.0;;;27.16;26.14
48644;BME280;34928;37.302;-121.984;2023-05-08T06:28:08;101225.0;;;27.35;26.15
48644;BME280;34928;37.302;-121.984;2023-05-08T06:38:13;101234.0;;;27.07;26.13
48644;BME280;34928;37.302;-121.984;2023-05-08T06:48:17;101246.0;;;27.53;26.05
48644;BME280;34928;37.302;-121.984;2023-05-08T06:58:23;101244.0;;;27.17;26.07
48644;BME280;34928;37.302;-121.984;2023-05-08T07:08:28;101240.0;;;27.50;25.51
48644;BME280;34928;37.302;-121.984;2023-05-08T07:18:33;101241.0;;;27.16;25.49
48644;BME280;34928;37.302;-121.984;2023-05-08T07:28:39;101249.0;;;27.05;25.48
48644;BME280;34928;37.302;-121.984;2023-05-08T07:38:43;101238.0;;;27.05;25.65
48644;BME280;34928;37.302;-121.984;2023-05-08T07:48:48;101235.0;;;27.08;25.62
48644;BME280;34928;37.302;-121.984;2023-05-08T07:58:53;101224.0;;;26.94;25.67
48644;BME280;34928;37.302;-121.984;2023-05-08T08:08:58;101225.0;;;26.53;25.80
48644;BME280;34928;37.302;-121.984;2023-05-08T08:19:03;101210.0;;;26.31;26.07
48644;BME280;34928;37.302;-121.984;2023-05-08T08:29:07;101216.0;;;26.48;25.92
48644;BME280;34928;37.302;-121.984;2023-05-08T08:39:12;101219.0;;;26.37;25.93
48644;BME280;34928;37.302;-121.984;2023-05-08T08:49:18;101205.0;;;26.06;26.22
48644;BME280;34928;37.302;-121.984;2023-05-08T08:59:30;101204.0;;;25.85;26.35
48644;BME280;34928;37.302;-121.984;2023-05-08T09:09:39;101201.0;;;25.95;26.06
48644;BME280;34928;37.302;-121.984;2023-05-08T09:19:43;101196.0;;;25.86;26.05
48644;BME280;34928;37.302;-121.984;2023-05-08T09:29:58;101187.0;;;25.65;26.13
48644;BME280;34928;37.302;-121.984;2023-05-08T09:50:23;101182.0;;;25.93;26.21
48644;BME280;34928;37.302;-121.984;2023-05-08T10:00:29;101174.0;;;25.97;26.09
48644;BME280;34928;37.302;-121.984;2023-05-08T10:10:44;101184.0;;;25.61;26.39
48644;BME280;34928;37.302;-121.984;2023-05-08T10:20:49;101189.0;;;25.60;26.02
48644;BME280;34928;37.302;-121.984;2023-05-08T10:30:55;101187.0;;;25.79;25.93
48644;BME280;34928;37.302;-121.984;2023-05-08T10:41:03;101193.0;;;25.48;25.90
48644;BME280;34928;37.302;-121.984;2023-05-08T10:51:12;101193.0;;;25.64;25.92
48644;BME280;34928;37.302;-121.984;2023-05-08T11:01:18;101187.0;;;25.54;25.83
48644;BME280;34928;37.302;-121.984;2023-05-08T11:11:27;101186.0;;;25.40;26.00
48644;BME280;34928;37.302;-121.984;2023-05-08T11:21:33;101183.0;;;25.33;25.86
48644;BME280;34928;37.302;-121.984;2023-05-08T11:52:18;101204.0;;;24.93;25.93
48644;BME280;34928;37.302;-121.984;2023-05-08T12:02:36;101194.0;;;24.79;25.95
48644;BME280;34928;37.302;-121.984;2023-05-08T12:12:44;101195.0;;;25.00;25.87
48644;BME280;34928;37.302;-121.984;2023-05-08T12:22:51;101198.0;;;25.10;25.98
48644;BME280;34928;37.302;-121.984;2023-05-08T12:32:58;101188.0;;;24.79;25.91
48644;BME280;34928;37.302;-121.984;2023-05-08T12:43:05;101190.0;;;24.52;25.84
48644;BME280;34928;37.302;-121.984;2023-05-08T12:53:10;101184.0;;;24.41;25.91
48644;BME280;34928;37.302;-121.984;2023-05-08T13:03:23;101184.0;;;24.55;25.95
48644;BME280;34928;37.302;-121.984;2023-05-08T13:13:30;101197.0;;;24.98;25.93
48644;BME280;34928;37.302;-121.984;2023-05-08T13:23:38;101199.0;;;26.07;25.43
48644;BME280;34928;37.302;-121.984;2023-05-08T13:33:43;101226.0;;;26.97;24.85
48644;BME280;34928;37.302;-121.984;2023-05-08T13:43:47;101223.0;;;27.05;23.94
48644;BME280;34928;37.302;-121.984;2023-05-08T13:53:52;101217.0;;;27.57;23.98
48644;BME280;34928;37.302;-121.984;2023-05-08T14:03:58;101220.0;;;27.63;23.69
48644;BME280;34928;37.302;-121.984;2023-05-08T14:14:03;101234.0;;;26.91;23.51
48644;BME280;34928;37.302;-121.984;2023-05-08T14:24:08;101250.0;;;26.81;23.99
48644;BME280;34928;37.302;-121.984;2023-05-08T14:34:14;101245.0;;;26.38;24.40
48644;BME280;34928;37.302;-121.984;2023-05-08T14:44:18;101254.0;;;25.76;23.58
48644;BME280;34928;37.302;-121.984;2023-05-08T14:54:23;101238.0;;;25.80;24.35
48644;BME280;34928;37.302;-121.984;2023-05-08T15:04:28;101239.0;;;26.21;24.69
48644;BME280;34928;37.302;-121.984;2023-05-08T15:14:34;101242.0;;;25.99;24.47
48644;BME280;34928;37.302;-121.984;2023-05-08T15:24:38;101252.0;;;25.77;24.74
48644;BME280;34928;37.302;-121.984;2023-05-08T15:34:43;101258.0;;;25.79;24.67
48644;BME280;34928;37.302;-121.984;2023-05-08T15:44:48;101268.0;;;26.11;24.78
48644;BME280;34928;37.302;-121.984;2023-05-08T15:54:53;101272.0;;;25.83;24.75
48644;BME280;34928;37.302;-121.984;2023-05-08T16:04:57;101263.0;;;25.86;24.85
48644;BME280;34928;37.302;-121.984;2023-05-08T16:15:04;101271.0;;;25.75;24.98
48644;BME280;34928;37.302;-121.984;2023-05-08T16:25:08;101269.0;;;25.88;25.04
48644;BME280;34928;37.302;-121.984;2023-05-08T16:35:13;101255.0;;;25.46;25.02
48644;BME280;34928;37.302;-121.984;2023-05-08T16:45:19;101264.0;;;25.87;25.03
48644;BME280;34928;37.302;-121.984;2023-05-08T16:55:23;101268.0;;;25.55;25.59
48644;BME280;34928;37.302;-121.984;2023-05-08T17:05:27;101272.0;;;25.93;25.20
48644;BME280;34928;37.302;-121.984;2023-05-08T17:15:33;101264.0;;;25.62;25.44
48644;BME280;34928;37.302;-121.984;2023-05-08T17:25:37;101269.0;;;25.62;25.49
48644;BME280;34928;37.302;-121.984;2023-05-08T17:35:43;101284.0;;;25.42;25.85
48644;BME280;34928;37.302;-121.984;2023-05-08T17:45:47;101293.0;;;25.78;25.71
48644;BME280;34928;37.302;-121.984;2023-05-08T17:55:53;101287.0;;;25.64;25.64
48644;BME280;34928;37.302;-121.984;2023-05-08T18:05:58;101294.0;;;26.07;25.52
48644;BME280;34928;37.302;-121.984;2023-05-08T18:16:03;101300.0;;;25.97;25.60
48644;BME280;34928;37.302;-121.984;2023-05-08T18:26:11;101280.0;;;25.85;25.87
48644;BME280;34928;37.302;-121.984;2023-05-08T18:36:17;101296.0;;;25.52;26.02
48644;BME280;34928;37.302;-121.984;2023-05-08T18:46:23;101291.0;;;25.38;25.88
48644;BME280;34928;37.302;-121.984;2023-05-08T18:56:28;101291.0;;;26.01;25.82
48644;BME280;34928;37.302;-121.984;2023-05-08T19:06:32;101280.0;;;25.82;25.77
48644;BME280;34928;37.302;-121.984;2023-05-08T19:16:38;101269.0;;;25.86;25.66
48644;BME280;34928;37.302;-121.984;2023-05-08T19:26:43;101265.0;;;25.80;25.70
48644;BME280;34928;37.302;-121.984;2023-05-08T19:36:48;101257.0;;;25.95;25.59
48644;BME280;34928;37.302;-121.984;2023-05-08T19:46:53;101249.0;;;26.08;25.79
48644;BME280;34928;37.302;-121.984;2023-05-08T19:56:58;101246.0;;;25.76;25.83
48644;BME280;34928;37.302;-121.984;2023-05-08T20:07:03;101233.0;;;25.83;25.85
48644;BME280;34928;37.302;-121.984;2023-05-08T20:17:08;101232.0;;;25.70;26.11
48644;BME280;34928;37.302;-121.984;2023-05-08T20:27:13;101221.0;;;26.23;25.86
48644;BME280;34928;37.302;-121.984;2023-05-08T20:37:18;101218.0;;;26.27;25.97
48644;BME280;34928;37.302;-121.984;2023-05-08T20:47:22;101213.0;;;26.34;25.91
48644;BME280;34928;37.302;-121.984;2023-05-08T20:57:28;101211.0;;;26.14;25.93
48644;BME280;34928;37.302;-121.984;2023-05-08T21:07:32;101200.0;;;26.26;25.86
48644;BME280;34928;37.302;-121.984;2023-05-08T21:17:37;101196.0;;;26.16;25.82
48644;BME280;34928;37.302;-121.984;2023-05-08T21:27:43;101187.0;;;26.49;25.79
48644;BME280;34928;37.302;-121.984;2023-05-08T21:37:49;101177.0;;;26.41;26.01
48644;BME280;34928;37.302;-121.984;2023-05-08T21:47:53;101166.0;;;26.51;25.86
48644;BME280;34928;37.302;-121.984;2023-05-08T21:57:58;101163.0;;;26.53;26.01
48644;BME280;34928;37.302;-121.984;2023-05-08T22:08:04;101153.0;;;26.73;25.93
48644;BME280;34928;37.302;-121.984;2023-05-08T22:18:07;101140.0;;;26.83;26.01
48644;BME280;34928;37.302;-121.984;2023-05-08T22:28:12;101132.0;;;27.10;25.93
48644;BME280;34928;37.302;-121.984;2023-05-08T22:38:18;101117.0;;;27.41;25.91
48644;BME280;34928;37.302;-121.984;2023-05-08T22:48:22;101103.0;;;26.97;26.13
48644;BME280;34928;37.302;-121.984;2023-05-08T22:58:28;101103.0;;;26.84;25.99
48644;BME280;34928;37.302;-121.984;2023-05-08T23:08:33;101088.0;;;26.74;26.64
48644;BME280;34928;37.302;-121.984;2023-05-08T23:18:38;101086.0;;;27.03;26.95
48644;BME280;34928;37.302;-121.984;2023-05-08T23:28:43;101078.0;;;27.12;26.96
48644;BME280;34928;37.302;-121.984;2023-05-08T23:38:48;101075.0;;;27.53;26.70
48644;BME280;34928;37.302;-121.984;2023-05-08T23:48:52;101080.0;;;27.60;26.39
48644;BME280;34928;37.302;-121.984;2023-05-08T23:58:58;101075.0;;;27.89;26.04
